sensor_id;sensor_type;location;lat;lon;timestamp;P1;durP1;ratioP1;P2;durP2;ratioP2
20170;SDS011;10245;51.344;6.620;2023-05-07T00:00:15;7.47;;;4.80;;
20170;SDS011;10245;51.344;6.620;2023-05-07T00:02:40;6.90;;;4.80;;
20170;SDS011;10245;51.344;6.620;2023-05-07T00:05:06;5.82;;;4.18;;
20170;SDS011;10245;51.344;6.620;2023-05-07T00:07:30;6.10;;;4.20;;
20170;SDS011;10245;51.344;6.620;2023-05-07T00:09:54;8.48;;;4.50;;
20170;SDS011;10245;51.344;6.620;2023-05-07T00:12:17;6.25;;;3.60;;
20170;SDS011;10245;51.344;6.620;2023-05-07T00:14:40;7.22;;;4.78;;
20170;SDS011;10245;51.344;6.620;2023-05-07T00:17:04;6.22;;;4.30;;
20170;SDS011;10245;51.344;6.620;2023-05-07T00:19:27;5.53;;;4.32;;
20170;SDS011;10245;51.344;6.620;2023-05-07T00:21:52;6.25;;;4.65;;
20170;SDS011;10245;51.344;6.620;2023-05-07T00:24:17;5.68;;;4.45;;
20170;SDS011;10245;51.344;6.620;2023-05-07T00:26:40;7.93;;;5.30;;
20170;SDS011;10245;51.344;6.620;2023-05-07T00:29:03;4.63;;;4.20;;
20170;SDS011;10245;51.344;6.620;2023-05-07T00:31:27;6.47;;;4.57;;
20170;SDS011;10245;51.344;6.620;2023-05-07T00:33:50;7.38;;;4.63;;
20170;SDS011;10245;51.344;6.620;2023-05-07T00:36:13;6.72;;;4.30;;
20170;SDS011;10245;51.344;6.620;2023-05-07T00:38:38;8.68;;;5.35;;
20170;SDS011;10245;51.344;6.620;2023-05-07T00:41:01;6.93;;;5.05;;
20170;SDS011;10245;51.344;6.620;2023-05-07T00:43:25;6.47;;;5.20;;
20170;SDS011;10245;51.344;6.620;2023-05-07T00:45:48;6.85;;;5.35;;
20170;SDS011;10245;51.344;6.620;2023-05-07T00:48:12;6.78;;;5.63;;
20170;SDS011;10245;51.344;6.620;2023-05-07T00:50:36;7.55;;;5.45;;
20170;SDS011;10245;51.344;6.620;2023-05-07T00:52:59;7.57;;;5.03;;
20170;SDS011;10245;51.344;6.620;2023-05-07T00:55:24;7.10;;;5.50;;
20170;SDS011;10245;51.344;6.620;2023-05-07T00:57:48;8.25;;;5.50;;
20170;SDS011;10245;51.344;6.620;2023-05-07T01:00:13;7.53;;;4.80;;
20170;SDS011;10245;51.344;6.620;2023-05-07T01:02:37;5.22;;;4.72;;
20170;SDS011;10245;51.344;6.620;2023-05-07T01:05:01;5.93;;;4.18;;
20170;SDS011;10245;51.344;6.620;2023-05-07T01:07:27;6.00;;;4.43;;
20170;SDS011;10245;51.344;6.620;2023-05-07T01:09:52;9.07;;;4.78;;
20170;SDS011;10245;51.344;6.620;2023-05-07T01:12:17;6.95;;;4.40;;
20170;SDS011;10245;51.344;6.620;2023-05-07T01:14:40;5.60;;;4.13;;
20170;SDS011;10245;51.344;6.620;2023-05-07T01:17:04;5.85;;;4.80;;
20170;SDS011;10245;51.344;6.620;2023-05-07T01:19:28;7.97;;;4.70;;
20170;SDS011;10245;51.344;6.620;2023-05-07T01:21:54;8.25;;;4.30;;
20170;SDS011;10245;51.344;6.620;2023-05-07T01:24:33;7.55;;;5.45;;
20170;SDS011;10245;51.344;6.620;2023-05-07T01:27:00;6.15;;;4.55;;
20170;SDS011;10245;51.344;6.620;2023-05-07T01:29:26;6.10;;;5.43;;
20170;SDS011;10245;51.344;6.620;2023-05-07T01:31:50;7.43;;;5.07;;
20170;SDS011;10245;51.344;6.620;2023-05-07T01:34:15;5.93;;;4.45;;
20170;SDS011;10245;51.344;6.620;2023-05-07T01:36:40;5.95;;;4.88;;
20170;SDS011;10245;51.344;6.620;2023-05-07T01:39:06;5.55;;;5.05;;
20170;SDS011;10245;51.344;6.620;2023-05-07T01:41:33;7.05;;;5.00;;
20170;SDS011;10245;51.344;6.620;2023-05-07T01:43:57;5.88;;;4.57;;
20170;SDS011;10245;51.344;6.620;2023-05-07T01:46:21;6.38;;;4.85;;
20170;SDS011;10245;51.344;6.620;2023-05-07T01:48:45;6.03;;;4.82;;
20170;SDS011;10245;51.344;6.620;2023-05-07T01:51:09;6.22;;;4.20;;
20170;SDS011;10245;51.344;6.620;2023-05-07T01:53:35;6.60;;;4.05;;
20170;SDS011;10245;51.344;6.620;2023-05-07T01:55:59;6.10;;;4.28;;
20170;SDS011;10245;51.344;6.620;2023-05-07T01:58:24;6.35;;;4.93;;
20170;SDS011;10245;51.344;6.620;2023-05-07T02:00:49;6.53;;;4.25;;
20170;SDS011;10245;51.344;6.620;2023-05-07T02:03:13;6.28;;;4.70;;
20170;SDS011;10245;51.344;6.620;2023-05-07T02:05:45;4.75;;;4.35;;
20170;SDS011;10245;51.344;6.620;2023-05-07T02:08:25;7.30;;;5.00;;
20170;SDS011;10245;51.344;6.620;2023-05-07T02:10:50;7.80;;;4.97;;
20170;SDS011;10245;51.344;6.620;2023-05-07T02:13:15;9.73;;;5.70;;
20170;SDS011;10245;51.344;6.620;2023-05-07T02:15:42;8.25;;;5.60;;
20170;SDS011;10245;51.344;6.620;2023-05-07T02:18:10;8.18;;;5.60;;
20170;SDS011;10245;51.344;6.620;2023-05-07T02:20:34;9.93;;;5.70;;
20170;SDS011;10245;51.344;6.620;2023-05-07T02:22:57;6.07;;;4.82;;
20170;SDS011;10245;51.344;6.620;2023-05-07T02:25:23;8.85;;;5.43;;
20170;SDS011;10245;51.344;6.620;2023-05-07T02:27:47;7.70;;;5.05;;
20170;SDS011;10245;51.344;6.620;2023-05-07T02:30:11;5.93;;;4.82;;
20170;SDS011;10245;51.344;6.620;2023-05-07T02:32:37;6.63;;;4.82;;
20170;SDS011;10245;51.344;6.620;2023-05-07T02:35:00;6.25;;;5.47;;
20170;SDS011;10245;51.344;6.620;2023-05-07T02:37:23;6.90;;;5.28;;
20170;SDS011;10245;51.344;6.620;2023-05-07T02:39:47;8.93;;;4.88;;
20170;SDS011;10245;51.344;6.620;2023-05-07T02:42:10;8.90;;;5.95;;
20170;SDS011;10245;51.344;6.620;2023-05-07T02:44:34;5.90;;;5.30;;
20170;SDS011;10245;51.344;6.620;2023-05-07T02:46:57;6.57;;;5.30;;
20170;SDS011;10245;51.344;6.620;2023-05-07T02:49:22;8.70;;;4.80;;
20170;SDS011;10245;51.344;6.620;2023-05-07T02:51:45;7.72;;;5.63;;
20170;SDS011;10245;51.344;6.620;2023-05-07T02:54:14;7.22;;;5.07;;
20170;SDS011;10245;51.344;6.620;2023-05-07T02:56:39;6.75;;;5.20;;
20170;SDS011;10245;51.344;6.620;2023-05-07T02:59:02;6.95;;;5.10;;
20170;SDS011;10245;51.344;6.620;2023-05-07T03:01:30;5.90;;;4.93;;
20170;SDS011;10245;51.344;6.620;2023-05-07T03:03:59;6.57;;;5.28;;
20170;SDS011;10245;51.344;6.620;2023-05-07T03:06:24;6.68;;;4.85;;
20170;SDS011;10245;51.344;6.620;2023-05-07T03:08:47;5.47;;;4.93;;
20170;SDS011;10245;51.344;6.620;2023-05-07T03:11:11;5.88;;;4.93;;
20170;SDS011;10245;51.344;6.620;2023-05-07T03:13:34;8.25;;;5.15;;
20170;SDS011;10245;51.344;6.620;2023-05-07T03:15:58;5.20;;;4.70;;
20170;SDS011;10245;51.344;6.620;2023-05-07T03:18:21;5.78;;;5.13;;
20170;SDS011;10245;51.344;6.620;2023-05-07T03:20:45;6.65;;;4.68;;
20170;SDS011;10245;51.344;6.620;2023-05-07T03:23:13;5.90;;;5.30;;
20170;SDS011;10245;51.344;6.620;2023-05-07T03:25:36;6.20;;;5.18;;
20170;SDS011;10245;51.344;6.620;2023-05-07T03:28:00;6.00;;;4.90;;
20170;SDS011;10245;51.344;6.620;2023-05-07T03:30:32;6.07;;;5.15;;
20170;SDS011;10245;51.344;6.620;2023-05-07T03:32:55;9.60;;;5.65;;
20170;SDS011;10245;51.344;6.620;2023-05-07T03:35:19;6.68;;;5.47;;
20170;SDS011;10245;51.344;6.620;2023-05-07T03:37:42;8.30;;;5.90;;
20170;SDS011;10245;51.344;6.620;2023-05-07T03:40:08;7.97;;;5.70;;
20170;SDS011;10245;51.344;6.620;2023-05-07T03:42:41;9.57;;;5.85;;
20170;SDS011;10245;51.344;6.620;2023-05-07T03:45:06;7.72;;;6.43;;
20170;SDS011;10245;51.344;6.620;2023-05-07T03:47:34;8.38;;;6.70;;
20170;SDS011;10245;51.344;6.620;2023-05-07T03:49:57;7.03;;;6.30;;
20170;SDS011;10245;51.344;6.620;2023-05-07T03:52:21;6.75;;;6.10;;
20170;SDS011;10245;51.344;6.620;2023-05-07T03:54:49;8.38;;;5.82;;
20170;SDS011;10245;51.344;6.620;2023-05-07T03:57:14;5.97;;;5.47;;
20170;SDS011;10245;51.344;6.620;2023-05-07T03:59:38;6.78;;;5.20;;
20170;SDS011;10245;51.344;6.620;2023-05-07T04:02:02;6.38;;;5.53;;
20170;SDS011;10245;51.344;6.620;2023-05-07T04:04:27;7.82;;;5.53;;
20170;SDS011;10245;51.344;6.620;2023-05-07T04:06:54;8.23;;;5.78;;
20170;SDS011;10245;51.344;6.620;2023-05-07T04:09:17;5.88;;;5.25;;
20170;SDS011;10245;51.344;6.620;2023-05-07T04:11:42;6.45;;;4.78;;
20170;SDS011;10245;51.344;6.620;2023-05-07T04:14:07;6.13;;;4.57;;
20170;SDS011;10245;51.344;6.620;2023-05-07T04:16:31;7.82;;;5.35;;
20170;SDS011;10245;51.344;6.620;2023-05-07T04:18:54;7.68;;;4.93;;
20170;SDS011;10245;51.344;6.620;2023-05-07T04:21:18;5.32;;;4.82;;
20170;SDS011;10245;51.344;6.620;2023-05-07T04:23:45;7.45;;;4.72;;
20170;SDS011;10245;51.344;6.620;2023-05-07T04:26:09;4.97;;;4.47;;
20170;SDS011;10245;51.344;6.620;2023-05-07T04:28:35;7.32;;;4.93;;
20170;SDS011;10245;51.344;6.620;2023-05-07T04:31:00;5.88;;;4.63;;
20170;SDS011;10245;51.344;6.620;2023-05-07T04:33:25;6.53;;;5.18;;
20170;SDS011;10245;51.344;6.620;2023-05-07T04:35:50;6.90;;;5.10;;
20170;SDS011;10245;51.344;6.620;2023-05-07T04:38:14;6.30;;;4.80;;
20170;SDS011;10245;51.344;6.620;2023-05-07T04:40:38;6.05;;;4.50;;
20170;SDS011;10245;51.344;6.620;2023-05-07T04:43:04;9.23;;;4.43;;
20170;SDS011;10245;51.344;6.620;2023-05-07T04:45:34;7.35;;;4.80;;
20170;SDS011;10245;51.344;6.620;2023-05-07T04:47:59;6.20;;;4.68;;
20170;SDS011;10245;51.344;6.620;2023-05-07T04:50:24;6.53;;;4.72;;
20170;SDS011;10245;51.344;6.620;2023-05-07T04:52:52;5.97;;;4.72;;
20170;SDS011;10245;51.344;6.620;2023-05-07T04:55:17;7.25;;;4.78;;
20170;SDS011;10245;51.344;6.620;2023-05-07T04:57:41;7.15;;;4.40;;
20170;SDS011;10245;51.344;6.620;2023-05-07T05:00:06;6.38;;;4.50;;
20170;SDS011;10245;51.344;6.620;2023-05-07T05:02:33;5.18;;;4.55;;
20170;SDS011;10245;51.344;6.620;2023-05-07T05:04:58;8.45;;;5.20;;
20170;SDS011;10245;51.344;6.620;2023-05-07T05:07:22;7.30;;;4.88;;
20170;SDS011;10245;51.344;6.620;2023-05-07T05:09:46;8.15;;;4.72;;
20170;SDS011;10245;51.344;6.620;2023-05-07T05:12:10;6.32;;;4.57;;
20170;SDS011;10245;51.344;6.620;2023-05-07T05:14:34;7.20;;;5.03;;
20170;SDS011;10245;51.344;6.620;2023-05-07T05:16:58;9.75;;;4.88;;
20170;SDS011;10245;51.344;6.620;2023-05-07T05:19:22;5.15;;;4.25;;
20170;SDS011;10245;51.344;6.620;2023-05-07T05:21:46;5.85;;;4.45;;
20170;SDS011;10245;51.344;6.620;2023-05-07T05:24:10;10.77;;;4.80;;
20170;SDS011;10245;51.344;6.620;2023-05-07T05:26:33;6.72;;;4.63;;
20170;SDS011;10245;51.344;6.620;2023-05-07T05:28:57;8.38;;;4.38;;
20170;SDS011;10245;51.344;6.620;2023-05-07T05:31:23;8.73;;;5.20;;
20170;SDS011;10245;51.344;6.620;2023-05-07T05:33:46;9.43;;;4.82;;
20170;SDS011;10245;51.344;6.620;2023-05-07T05:36:09;5.82;;;4.65;;
20170;SDS011;10245;51.344;6.620;2023-05-07T05:38:36;8.35;;;5.20;;
20170;SDS011;10245;51.344;6.620;2023-05-07T05:41:00;7.85;;;4.72;;
20170;SDS011;10245;51.344;6.620;2023-05-07T05:43:24;9.73;;;4.53;;
20170;SDS011;10245;51.344;6.620;2023-05-07T05:45:47;7.88;;;4.32;;
20170;SDS011;10245;51.344;6.620;2023-05-07T05:48:11;5.95;;;4.22;;
20170;SDS011;10245;51.344;6.620;2023-05-07T05:50:34;9.30;;;4.63;;
20170;SDS011;10245;51.344;6.620;2023-05-07T05:52:59;8.55;;;4.80;;
20170;SDS011;10245;51.344;6.620;2023-05-07T05:55:24;6.28;;;4.50;;
20170;SDS011;10245;51.344;6.620;2023-05-07T05:57:48;7.78;;;4.20;;
20170;SDS011;10245;51.344;6.620;2023-05-07T06:00:12;6.25;;;4.20;;
20170;SDS011;10245;51.344;6.620;2023-05-07T06:02:39;6.65;;;4.30;;
20170;SDS011;10245;51.344;6.620;2023-05-07T06:05:05;6.93;;;4.07;;
20170;SDS011;10245;51.344;6.620;2023-05-07T06:07:29;7.35;;;4.15;;
20170;SDS011;10245;51.344;6.620;2023-05-07T06:09:52;8.00;;;4.25;;
20170;SDS011;10245;51.344;6.620;2023-05-07T06:12:18;6.50;;;4.10;;
20170;SDS011;10245;51.344;6.620;2023-05-07T06:14:42;4.55;;;3.70;;
20170;SDS011;10245;51.344;6.620;2023-05-07T06:17:06;6.50;;;3.70;;
20170;SDS011;10245;51.344;6.620;2023-05-07T06:19:30;8.95;;;4.68;;
20170;SDS011;10245;51.344;6.620;2023-05-07T06:21:54;8.27;;;3.90;;
20170;SDS011;10245;51.344;6.620;2023-05-07T06:24:19;5.93;;;3.35;;
20170;SDS011;10245;51.344;6.620;2023-05-07T06:26:43;7.30;;;3.92;;
20170;SDS011;10245;51.344;6.620;2023-05-07T06:29:08;4.78;;;3.20;;
20170;SDS011;10245;51.344;6.620;2023-05-07T06:31:34;6.22;;;3.78;;
20170;SDS011;10245;51.344;6.620;2023-05-07T06:34:01;6.10;;;3.67;;
20170;SDS011;10245;51.344;6.620;2023-05-07T06:36:30;6.18;;;3.20;;
20170;SDS011;10245;51.344;6.620;2023-05-07T06:38:58;4.93;;;3.15;;
20170;SDS011;10245;51.344;6.620;2023-05-07T06:41:21;6.03;;;3.30;;
20170;SDS011;10245;51.344;6.620;2023-05-07T06:43:45;5.03;;;3.10;;
20170;SDS011;10245;51.344;6.620;2023-05-07T06:46:39;7.20;;;3.30;;
20170;SDS011;10245;51.344;6.620;2023-05-07T06:49:03;4.68;;;2.80;;
20170;SDS011;10245;51.344;6.620;2023-05-07T06:51:27;4.97;;;3.42;;
20170;SDS011;10245;51.344;6.620;2023-05-07T06:53:54;4.50;;;3.20;;
20170;SDS011;10245;51.344;6.620;2023-05-07T06:56:18;5.35;;;3.10;;
20170;SDS011;10245;51.344;6.620;2023-05-07T06:58:42;5.78;;;3.28;;
20170;SDS011;10245;51.344;6.620;2023-05-07T07:01:06;4.13;;;3.25;;
20170;SDS011;10245;51.344;6.620;2023-05-07T07:03:31;4.75;;;3.30;;
20170;SDS011;10245;51.344;6.620;2023-05-07T07:05:55;5.43;;;3.00;;
20170;SDS011;10245;51.344;6.620;2023-05-07T07:08:18;5.95;;;3.33;;
20170;SDS011;10245;51.344;6.620;2023-05-07T07:10:44;4.22;;;3.15;;
20170;SDS011;10245;51.344;6.620;2023-05-07T07:13:07;3.88;;;3.20;;
20170;SDS011;10245;51.344;6.620;2023-05-07T07:15:31;4.55;;;2.90;;
20170;SDS011;10245;51.344;6.620;2023-05-07T07:17:54;5.35;;;2.78;;
20170;SDS011;10245;51.344;6.620;2023-05-07T07:20:19;5.68;;;3.65;;
20170;SDS011;10245;51.344;6.620;2023-05-07T07:22:43;5.47;;;3.83;;
20170;SDS011;10245;51.344;6.620;2023-05-07T07:25:08;4.18;;;2.97;;
20170;SDS011;10245;51.344;6.620;2023-05-07T07:27:33;4.18;;;2.97;;
20170;SDS011;10245;51.344;6.620;2023-05-07T07:29:56;4.40;;;3.00;;
20170;SDS011;10245;51.344;6.620;2023-05-07T07:32:20;3.13;;;2.22;;
20170;SDS011;10245;51.344;6.620;2023-05-07T07:34:45;4.13;;;2.97;;
20170;SDS011;10245;51.344;6.620;2023-05-07T07:37:10;3.38;;;2.75;;
20170;SDS011;10245;51.344;6.620;2023-05-07T07:39:33;4.15;;;2.65;;
20170;SDS011;10245;51.344;6.620;2023-05-07T07:42:00;5.47;;;2.83;;
20170;SDS011;10245;51.344;6.620;2023-05-07T07:44:24;4.22;;;3.10;;
20170;SDS011;10245;51.344;6.620;2023-05-07T07:46:52;3.25;;;2.58;;
20170;SDS011;10245;51.344;6.620;2023-05-07T07:49:17;4.45;;;3.05;;
20170;SDS011;10245;51.344;6.620;2023-05-07T07:51:41;3.38;;;2.72;;
20170;SDS011;10245;51.344;6.620;2023-05-07T07:54:07;5.32;;;2.97;;
20170;SDS011;10245;51.344;6.620;2023-05-07T07:56:31;4.88;;;2.70;;
20170;SDS011;10245;51.344;6.620;2023-05-07T07:58:57;2.85;;;2.55;;
20170;SDS011;10245;51.344;6.620;2023-05-07T08:01:21;6.65;;;2.70;;
20170;SDS011;10245;51.344;6.620;2023-05-07T08:03:44;5.57;;;3.10;;
20170;SDS011;10245;51.344;6.620;2023-05-07T08:06:08;4.80;;;2.50;;
20170;SDS011;10245;51.344;6.620;2023-05-07T08:08:32;4.43;;;2.35;;
20170;SDS011;10245;51.344;6.620;2023-05-07T08:10:56;5.45;;;3.08;;
20170;SDS011;10245;51.344;6.620;2023-05-07T08:13:25;3.45;;;2.47;;
20170;SDS011;10245;51.344;6.620;2023-05-07T08:15:49;6.40;;;3.72;;
20170;SDS011;10245;51.344;6.620;2023-05-07T08:18:12;3.47;;;2.30;;
20170;SDS011;10245;51.344;6.620;2023-05-07T08:20:37;5.30;;;3.67;;
20170;SDS011;10245;51.344;6.620;2023-05-07T08:23:04;3.60;;;2.55;;
20170;SDS011;10245;51.344;6.620;2023-05-07T08:25:28;6.70;;;3.88;;
20170;SDS011;10245;51.344;6.620;2023-05-07T08:27:53;4.13;;;2.60;;
20170;SDS011;10245;51.344;6.620;2023-05-07T08:30:18;6.10;;;2.85;;
20170;SDS011;10245;51.344;6.620;2023-05-07T08:32:41;5.32;;;3.08;;
20170;SDS011;10245;51.344;6.620;2023-05-07T08:35:05;18.85;;;7.68;;
20170;SDS011;10245;51.344;6.620;2023-05-07T08:37:29;8.32;;;2.85;;
20170;SDS011;10245;51.344;6.620;2023-05-07T08:39:53;6.43;;;3.25;;
20170;SDS011;10245;51.344;6.620;2023-05-07T08:42:20;3.97;;;2.42;;
20170;SDS011;10245;51.344;6.620;2023-05-07T08:44:48;3.20;;;2.53;;
20170;SDS011;10245;51.344;6.620;2023-05-07T08:47:16;3.78;;;3.03;;
20170;SDS011;10245;51.344;6.620;2023-05-07T08:49:44;4.35;;;2.42;;
20170;SDS011;10245;51.344;6.620;2023-05-07T08:52:08;3.00;;;2.63;;
20170;SDS011;10245;51.344;6.620;2023-05-07T08:54:32;3.85;;;2.60;;
20170;SDS011;10245;51.344;6.620;2023-05-07T08:56:56;4.28;;;2.40;;
20170;SDS011;10245;51.344;6.620;2023-05-07T08:59:20;4.53;;;2.53;;
20170;SDS011;10245;51.344;6.620;2023-05-07T09:01:45;20.30;;;3.28;;
20170;SDS011;10245;51.344;6.620;2023-05-07T09:04:10;4.78;;;2.17;;
20170;SDS011;10245;51.344;6.620;2023-05-07T09:06:35;2.63;;;2.10;;
20170;SDS011;10245;51.344;6.620;2023-05-07T09:08:59;4.65;;;2.20;;
20170;SDS011;10245;51.344;6.620;2023-05-07T09:11:27;4.90;;;2.10;;
20170;SDS011;10245;51.344;6.620;2023-05-07T09:13:54;2.72;;;2.00;;
20170;SDS011;10245;51.344;6.620;2023-05-07T09:16:20;4.18;;;2.15;;
20170;SDS011;10245;51.344;6.620;2023-05-07T09:18:46;3.55;;;1.95;;
20170;SDS011;10245;51.344;6.620;2023-05-07T09:21:09;5.63;;;2.50;;
20170;SDS011;10245;51.344;6.620;2023-05-07T09:23:33;2.90;;;2.65;;
20170;SDS011;10245;51.344;6.620;2023-05-07T09:25:59;4.43;;;2.45;;
20170;SDS011;10245;51.344;6.620;2023-05-07T09:28:26;2.63;;;2.03;;
20170;SDS011;10245;51.344;6.620;2023-05-07T09:30:50;3.25;;;2.42;;
20170;SDS011;10245;51.344;6.620;2023-05-07T09:33:14;4.05;;;1.98;;
20170;SDS011;10245;51.344;6.620;2023-05-07T09:35:44;6.28;;;2.33;;
20170;SDS011;10245;51.344;6.620;2023-05-07T09:38:11;3.72;;;2.40;;
20170;SDS011;10245;51.344;6.620;2023-05-07T09:40:36;4.57;;;2.30;;
20170;SDS011;10245;51.344;6.620;2023-05-07T09:43:09;2.60;;;1.92;;
20170;SDS011;10245;51.344;6.620;2023-05-07T09:45:38;3.17;;;2.20;;
20170;SDS011;10245;51.344;6.620;2023-05-07T09:48:05;2.38;;;1.90;;
20170;SDS011;10245;51.344;6.620;2023-05-07T09:50:32;2.63;;;1.95;;
20170;SDS011;10245;51.344;6.620;2023-05-07T09:53:01;3.47;;;1.77;;
20170;SDS011;10245;51.344;6.620;2023-05-07T09:55:27;6.90;;;2.17;;
20170;SDS011;10245;51.344;6.620;2023-05-07T09:57:52;5.43;;;1.90;;
20170;SDS011;10245;51.344;6.620;2023-05-07T10:00:17;3.13;;;1.45;;
20170;SDS011;10245;51.344;6.620;2023-05-07T10:02:42;2.38;;;1.50;;
20170;SDS011;10245;51.344;6.620;2023-05-07T10:05:11;2.83;;;1.40;;
20170;SDS011;10245;51.344;6.620;2023-05-07T10:07:37;4.75;;;1.92;;
20170;SDS011;10245;51.344;6.620;2023-05-07T10:10:04;2.05;;;1.85;;
20170;SDS011;10245;51.344;6.620;2023-05-07T10:12:34;3.85;;;1.58;;
20170;SDS011;10245;51.344;6.620;2023-05-07T10:15:06;1.88;;;1.50;;
20170;SDS011;10245;51.344;6.620;2023-05-07T10:17:33;3.45;;;1.60;;
20170;SDS011;10245;51.344;6.620;2023-05-07T10:19:59;1.90;;;1.30;;
20170;SDS011;10245;51.344;6.620;2023-05-07T10:22:25;1.90;;;1.17;;
20170;SDS011;10245;51.344;6.620;2023-05-07T10:24:49;2.45;;;1.50;;
20170;SDS011;10245;51.344;6.620;2023-05-07T10:27:18;3.47;;;1.40;;
20170;SDS011;10245;51.344;6.620;2023-05-07T10:29:49;1.88;;;1.38;;
20170;SDS011;10245;51.344;6.620;2023-05-07T10:32:30;4.97;;;1.92;;
20170;SDS011;10245;51.344;6.620;2023-05-07T10:35:06;3.80;;;1.60;;
20170;SDS011;10245;51.344;6.620;2023-05-07T10:37:33;3.15;;;1.45;;
20170;SDS011;10245;51.344;6.620;2023-05-07T10:39:57;2.35;;;1.40;;
20170;SDS011;10245;51.344;6.620;2023-05-07T10:42:25;1.38;;;1.27;;
20170;SDS011;10245;51.344;6.620;2023-05-07T10:44:50;5.07;;;1.70;;
20170;SDS011;10245;51.344;6.620;2023-05-07T10:47:21;2.15;;;1.17;;
20170;SDS011;10245;51.344;6.620;2023-05-07T10:52:44;2.30;;;1.35;;
20170;SDS011;10245;51.344;6.620;2023-05-07T10:55:19;2.38;;;1.30;;
20170;SDS011;10245;51.344;6.620;2023-05-07T10:58:26;2.17;;;1.38;;
20170;SDS011;10245;51.344;6.620;2023-05-07T11:04:32;1.88;;;1.27;;
20170;SDS011;10245;51.344;6.620;2023-05-07T11:10:07;3.92;;;1.48;;
20170;SDS011;10245;51.344;6.620;2023-05-07T11:12:53;2.67;;;1.50;;
20170;SDS011;10245;51.344;6.620;2023-05-07T11:18:25;1.98;;;1.60;;
20170;SDS011;10245;51.344;6.620;2023-05-07T11:21:10;2.03;;;1.30;;
20170;SDS011;10245;51.344;6.620;2023-05-07T11:26:43;2.65;;;1.25;;
20170;SDS011;10245;51.344;6.620;2023-05-07T11:29:10;2.95;;;1.40;;
20170;SDS011;10245;51.344;6.620;2023-05-07T11:31:37;2.20;;;1.30;;
20170;SDS011;10245;51.344;6.620;2023-05-07T11:34:02;2.92;;;1.50;;
20170;SDS011;10245;51.344;6.620;2023-05-07T11:36:30;1.90;;;1.42;;
20170;SDS011;10245;51.344;6.620;2023-05-07T11:39:00;2.63;;;1.50;;
20170;SDS011;10245;51.344;6.620;2023-05-07T11:41:32;1.33;;;1.20;;
20170;SDS011;10245;51.344;6.620;2023-05-07T11:43:58;1.52;;;1.30;;
20170;SDS011;10245;51.344;6.620;2023-05-07T11:46:22;2.45;;;1.30;;
20170;SDS011;10245;51.344;6.620;2023-05-07T11:48:47;2.15;;;1.25;;
20170;SDS011;10245;51.344;6.620;2023-05-07T11:51:10;3.33;;;1.27;;
20170;SDS011;10245;51.344;6.620;2023-05-07T11:53:35;3.22;;;1.35;;
20170;SDS011;10245;51.344;6.620;2023-05-07T11:56:00;2.17;;;1.42;;
20170;SDS011;10245;51.344;6.620;2023-05-07T11:58:28;2.42;;;1.70;;
20170;SDS011;10245;51.344;6.620;2023-05-07T12:00:52;2.33;;;1.35;;
20170;SDS011;10245;51.344;6.620;2023-05-07T12:03:16;5.20;;;1.98;;
20170;SDS011;10245;51.344;6.620;2023-05-07T12:05:41;3.75;;;1.50;;
20170;SDS011;10245;51.344;6.620;2023-05-07T12:08:05;2.67;;;1.50;;
20170;SDS011;10245;51.344;6.620;2023-05-07T12:10:28;4.88;;;1.65;;
20170;SDS011;10245;51.344;6.620;2023-05-07T12:12:51;2.25;;;1.40;;
20170;SDS011;10245;51.344;6.620;2023-05-07T12:15:15;2.20;;;1.60;;
20170;SDS011;10245;51.344;6.620;2023-05-07T12:17:39;3.53;;;1.85;;
20170;SDS011;10245;51.344;6.620;2023-05-07T12:20:03;4.88;;;1.60;;
20170;SDS011;10245;51.344;6.620;2023-05-07T12:22:30;4.55;;;2.08;;
20170;SDS011;10245;51.344;6.620;2023-05-07T12:24:56;4.03;;;1.95;;
20170;SDS011;10245;51.344;6.620;2023-05-07T12:27:21;3.63;;;1.60;;
20170;SDS011;10245;51.344;6.620;2023-05-07T12:29:44;1.58;;;1.45;;
20170;SDS011;10245;51.344;6.620;2023-05-07T12:32:12;5.07;;;2.40;;
20170;SDS011;10245;51.344;6.620;2023-05-07T12:34:37;2.28;;;1.60;;
20170;SDS011;10245;51.344;6.620;2023-05-07T12:37:06;4.45;;;2.28;;
20170;SDS011;10245;51.344;6.620;2023-05-07T12:39:31;6.10;;;1.40;;
20170;SDS011;10245;51.344;6.620;2023-05-07T12:41:54;2.58;;;1.65;;
20170;SDS011;10245;51.344;6.620;2023-05-07T12:44:18;4.45;;;2.28;;
20170;SDS011;10245;51.344;6.620;2023-05-07T12:46:41;3.17;;;1.77;;
20170;SDS011;10245;51.344;6.620;2023-05-07T12:49:05;3.28;;;1.95;;
20170;SDS011;10245;51.344;6.620;2023-05-07T12:51:28;3.72;;;1.77;;
20170;SDS011;10245;51.344;6.620;2023-05-07T12:53:51;1.85;;;1.63;;
20170;SDS011;10245;51.344;6.620;2023-05-07T12:56:20;2.90;;;1.35;;
20170;SDS011;10245;51.344;6.620;2023-05-07T12:58:44;2.65;;;1.50;;
20170;SDS011;10245;51.344;6.620;2023-05-07T13:01:07;2.10;;;1.50;;
20170;SDS011;10245;51.344;6.620;2023-05-07T13:03:37;3.13;;;1.90;;
20170;SDS011;10245;51.344;6.620;2023-05-07T13:06:02;4.82;;;2.17;;
20170;SDS011;10245;51.344;6.620;2023-05-07T13:08:28;4.40;;;2.13;;
20170;SDS011;10245;51.344;6.620;2023-05-07T13:10:54;3.00;;;2.10;;
20170;SDS011;10245;51.344;6.620;2023-05-07T13:13:19;3.60;;;1.90;;
20170;SDS011;10245;51.344;6.620;2023-05-07T13:15:43;5.45;;;2.20;;
20170;SDS011;10245;51.344;6.620;2023-05-07T13:18:06;3.03;;;2.42;;
20170;SDS011;10245;51.344;6.620;2023-05-07T13:20:31;4.53;;;2.13;;
20170;SDS011;10245;51.344;6.620;2023-05-07T13:22:55;4.00;;;2.53;;
20170;SDS011;10245;51.344;6.620;2023-05-07T13:25:18;5.82;;;2.95;;
20170;SDS011;10245;51.344;6.620;2023-05-07T13:27:41;4.30;;;2.70;;
20170;SDS011;10245;51.344;6.620;2023-05-07T13:30:08;3.22;;;2.30;;
20170;SDS011;10245;51.344;6.620;2023-05-07T13:32:32;5.22;;;2.70;;
20170;SDS011;10245;51.344;6.620;2023-05-07T13:34:55;3.05;;;2.47;;
20170;SDS011;10245;51.344;6.620;2023-05-07T13:37:18;6.20;;;2.83;;
20170;SDS011;10245;51.344;6.620;2023-05-07T13:39:42;3.20;;;2.20;;
20170;SDS011;10245;51.344;6.620;2023-05-07T13:42:05;4.63;;;2.60;;
20170;SDS011;10245;51.344;6.620;2023-05-07T13:44:29;4.70;;;2.90;;
20170;SDS011;10245;51.344;6.620;2023-05-07T13:46:53;5.00;;;2.40;;
20170;SDS011;10245;51.344;6.620;2023-05-07T13:49:17;6.25;;;3.05;;
20170;SDS011;10245;51.344;6.620;2023-05-07T13:51:40;3.88;;;2.60;;
20170;SDS011;10245;51.344;6.620;2023-05-07T13:54:03;3.42;;;2.60;;
20170;SDS011;10245;51.344;6.620;2023-05-07T13:56:27;3.83;;;2.75;;
20170;SDS011;10245;51.344;6.620;2023-05-07T13:58:52;5.95;;;3.35;;
20170;SDS011;10245;51.344;6.620;2023-05-07T14:01:20;4.38;;;3.08;;
20170;SDS011;10245;51.344;6.620;2023-05-07T14:03:45;4.55;;;3.00;;
20170;SDS011;10245;51.344;6.620;2023-05-07T14:06:09;3.28;;;2.90;;
20170;SDS011;10245;51.344;6.620;2023-05-07T14:08:32;3.63;;;3.30;;
20170;SDS011;10245;51.344;6.620;2023-05-07T14:10:55;4.82;;;3.45;;
20170;SDS011;10245;51.344;6.620;2023-05-07T14:13:19;3.35;;;3.05;;
20170;SDS011;10245;51.344;6.620;2023-05-07T14:15:42;4.20;;;3.30;;
20170;SDS011;10245;51.344;6.620;2023-05-07T14:18:07;5.10;;;3.90;;
20170;SDS011;10245;51.344;6.620;2023-05-07T14:20:32;3.80;;;3.40;;
20170;SDS011;10245;51.344;6.620;2023-05-07T14:22:58;3.85;;;3.45;;
20170;SDS011;10245;51.344;6.620;2023-05-07T14:25:21;4.68;;;3.20;;
20170;SDS011;10245;51.344;6.620;2023-05-07T14:27:45;3.97;;;3.60;;
20170;SDS011;10245;51.344;6.620;2023-05-07T14:30:09;5.18;;;3.72;;
20170;SDS011;10245;51.344;6.620;2023-05-07T14:32:33;5.00;;;3.65;;
20170;SDS011;10245;51.344;6.620;2023-05-07T14:34:57;8.55;;;4.30;;
20170;SDS011;10245;51.344;6.620;2023-05-07T14:37:22;8.25;;;4.90;;
20170;SDS011;10245;51.344;6.620;2023-05-07T14:39:46;6.80;;;5.30;;
20170;SDS011;10245;51.344;6.620;2023-05-07T14:42:11;8.18;;;5.18;;
20170;SDS011;10245;51.344;6.620;2023-05-07T14:44:34;8.40;;;6.20;;
20170;SDS011;10245;51.344;6.620;2023-05-07T14:46:58;9.52;;;6.60;;
20170;SDS011;10245;51.344;6.620;2023-05-07T14:49:22;6.55;;;5.28;;
20170;SDS011;10245;51.344;6.620;2023-05-07T14:51:46;8.18;;;5.32;;